Time;durP1;ratioP1;P1;durP2;ratioP2;P2;SDS_P1;SDS_P2;PMS_P1;PMS_P2;Temp;Humidity;BMP_temperature;BMP_pressure;BME280_temperature;BME280_humidity;BME280_pressure;Samples;Min_cycle;Max_cycle;Signal;HPM_P1;HPM_P2
2022/10/19 00:02:07;;;;;;;4.32;2.58;;;9.20;99.90;;;;;;5040363;28;20045;-27
2022/10/19 00:04:33;;;;;;;5.35;2.30;;;9.10;99.90;;;;;;5057014;28;20040;-26
2022/10/19 00:06:59;;;;;;;4.75;2.45;;;9.00;99.90;;;;;;5075099;28;20404;-26
2022/10/19 00:09:25;;;;;;;5.50;2.35;;;9.00;99.90;;;;;;5057065;28;20045;-27
2022/10/19 00:11:51;;;;;;;3.20;2.45;;;9.00;99.90;;;;;;5057144;28;20511;-26
2022/10/19 00:14:20;;;;;;;2.55;2.05;;;8.90;99.90;;;;;;5057028;28;20041;-26
2022/10/19 00:16:48;;;;;;;5.20;2.40;;;8.90;99.90;;;;;;5090251;28;20124;-27
2022/10/19 00:19:20;;;;;;;8.20;3.00;;;8.80;99.90;;;;;;5076145;28;20401;-26
2022/10/19 00:21:46;;;;;;;4.00;2.30;;;8.80;99.90;;;;;;5056645;28;20414;-25
2022/10/19 00:24:12;;;;;;;7.70;2.47;;;8.80;99.90;;;;;;5056874;28;20108;-26
2022/10/19 00:26:38;;;;;;;6.70;2.42;;;8.70;99.90;;;;;;5056840;28;20044;-26
2022/10/19 00:29:04;;;;;;;3.72;2.47;;;8.70;99.90;;;;;;5056528;28;20040;-26
2022/10/19 00:31:30;;;;;;;3.30;2.30;;;8.60;99.90;;;;;;5056771;28;20039;-26
2022/10/19 00:33:57;;;;;;;3.28;1.90;;;8.60;99.90;;;;;;5056371;28;20129;-27
2022/10/19 00:36:29;;;;;;;7.13;2.92;;;8.50;99.90;;;;;;5056393;28;20036;-26
2022/10/19 00:38:56;;;;;;;5.85;2.70;;;8.50;99.90;;;;;;5056651;28;20041;-26
2022/10/19 00:41:29;;;;;;;5.25;2.40;;;8.40;99.90;;;;;;5055406;28;20047;-26
2022/10/19 00:44:02;;;;;;;4.80;2.30;;;8.40;99.90;;;;;;5056469;28;20493;-26
2022/10/19 00:46:32;;;;;;;3.58;1.98;;;8.40;99.90;;;;;;5056341;28;20051;-26
2022/10/19 00:49:06;;;;;;;2.75;2.03;;;8.40;99.90;;;;;;5056472;28;20119;-27
2022/10/19 00:51:33;;;;;;;6.95;2.13;;;8.30;99.90;;;;;;5055948;28;20047;-26
2022/10/19 00:54:02;;;;;;;3.25;2.05;;;8.30;99.90;;;;;;5056405;28;20048;-27
2022/10/19 00:56:27;;;;;;;5.38;2.30;;;8.20;99.90;;;;;;5056194;28;20068;-26
2022/10/19 00:58:53;;;;;;;4.93;2.65;;;8.20;99.90;;;;;;5056265;28;20450;-26
2022/10/19 01:01:22;;;;;;;2.45;2.25;;;8.30;99.90;;;;;;5055720;28;20043;-26
2022/10/19 01:03:48;;;;;;;5.65;2.42;;;8.20;99.90;;;;;;5055736;28;20072;-26
2022/10/19 01:06:16;;;;;;;6.97;2.80;;;8.20;99.90;;;;;;5055770;28;20040;-26
2022/10/19 01:08:42;;;;;;;4.78;2.33;;;8.20;99.90;;;;;;5055825;28;20378;-25
2022/10/19 01:11:39;;;;;;;5.97;2.50;;;8.10;99.90;;;;;;5055745;28;20044;-26
2022/10/19 01:14:05;;;;;;;3.05;2.30;;;8.10;99.90;;;;;;5055716;28;20442;-26
2022/10/19 01:16:57;;;;;;;4.38;2.22;;;8.00;99.90;;;;;;5055923;28;20112;-28
2022/10/19 01:19:44;;;;;;;6.78;2.60;;;8.00;99.90;;;;;;5054258;28;20063;-26
2022/10/19 01:22:25;;;;;;;5.40;2.35;;;8.00;99.90;;;;;;5089276;28;20056;-26
2022/10/19 01:24:53;;;;;;;3.90;2.50;;;7.90;99.90;;;;;;5055575;28;20426;-27
2022/10/19 01:27:22;;;;;;;4.43;2.30;;;7.90;99.90;;;;;;5055607;28;20036;-26
2022/10/19 01:29:57;;;;;;;4.55;2.17;;;7.90;99.90;;;;;;5055498;28;20038;-26
2022/10/19 01:32:49;;;;;;;5.18;2.50;;;7.90;99.90;;;;;;5055422;28;20379;-27
2022/10/19 01:35:40;;;;;;;5.13;2.20;;;7.90;99.90;;;;;;5055083;28;20565;-27
2022/10/19 01:38:16;;;;;;;4.80;2.42;;;7.90;99.90;;;;;;5055144;28;20043;-25
2022/10/19 01:40:54;;;;;;;8.95;2.80;;;7.80;99.90;;;;;;5054971;28;20056;-26
2022/10/19 01:43:26;;;;;;;7.20;2.22;;;7.90;99.90;;;;;;5055307;28;20402;-26
2022/10/19 01:45:57;;;;;;;3.75;2.45;;;8.00;99.90;;;;;;5055041;28;20037;-27
2022/10/19 01:48:36;;;;;;;4.55;2.65;;;8.10;99.90;;;;;;5035280;28;20120;-26
2022/10/19 01:51:15;;;;;;;5.05;2.95;;;8.20;99.90;;;;;;5035009;28;20052;-26
2022/10/19 01:53:50;;;;;;;5.53;2.75;;;8.30;99.90;;;;;;5035095;28;20478;-26
2022/10/19 01:56:20;;;;;;;4.15;2.80;;;8.40;99.90;;;;;;5050386;28;20040;-25
2022/10/19 01:58:47;;;;;;;4.50;2.80;;;8.50;99.90;;;;;;5054842;28;20087;-26
2022/10/19 02:01:17;;;;;;;4.63;2.53;;;8.50;99.90;;;;;;5054745;28;20041;-28
2022/10/19 02:03:43;;;;;;;4.95;2.88;;;8.60;99.90;;;;;;5054984;28;20505;-27
2022/10/19 02:06:11;;;;;;;4.30;2.83;;;8.70;99.90;;;;;;5038072;28;20090;-27
2022/10/19 02:08:45;;;;;;;5.15;2.95;;;8.70;99.90;;;;;;5055043;28;20041;-26
2022/10/19 02:11:11;;;;;;;7.57;3.80;;;8.80;99.90;;;;;;5054905;28;20046;-28
2022/10/19 02:13:38;;;;;;;6.72;2.83;;;8.80;99.90;;;;;;5054461;28;20099;-26
2022/10/19 02:16:12;;;;;;;6.88;2.78;;;8.90;99.90;;;;;;5054845;28;20035;-27
2022/10/19 02:18:41;;;;;;;;;;;8.90;99.90;;;;;;5055128;28;20033;-26
2022/10/19 02:21:08;;;;;;;6.15;3.00;;;8.90;99.90;;;;;;5054479;28;19920;-26
2022/10/19 02:23:34;;;;;;;6.03;3.40;;;8.90;99.90;;;;;;5072169;28;20036;-27
2022/10/19 02:26:00;;;;;;;5.78;2.72;;;8.90;99.90;;;;;;5072274;28;20036;-26
2022/10/19 02:28:27;;;;;;;5.07;2.60;;;9.00;99.90;;;;;;5054533;28;20043;-27
2022/10/19 02:30:53;;;;;;;4.32;2.53;;;9.00;99.90;;;;;;5054572;28;20055;-26
2022/10/19 02:33:19;;;;;;;5.78;2.80;;;9.00;99.90;;;;;;5054021;28;20459;-29
2022/10/19 02:35:45;;;;;;;4.22;2.80;;;9.00;99.90;;;;;;5054236;28;20041;-26
2022/10/19 02:38:15;;;;;;;5.43;2.95;;;9.00;99.90;;;;;;5054093;28;20051;-26
2022/10/19 02:40:47;;;;;;;6.93;3.03;;;9.00;99.90;;;;;;5037468;28;20083;-26
2022/10/19 02:43:18;;;;;;;7.22;3.08;;;9.00;99.90;;;;;;5054051;28;20072;-26
2022/10/19 02:46:09;;;;;;;7.65;3.63;;;8.90;99.90;;;;;;5054571;28;20614;-26
2022/10/19 02:48:36;;;;;;;8.13;3.20;;;8.90;99.90;;;;;;5054037;28;20041;-26
2022/10/19 02:51:02;;;;;;;8.07;3.80;;;8.90;99.90;;;;;;5054330;28;20036;-26
2022/10/19 02:53:28;;;;;;;4.43;2.92;;;8.90;99.90;;;;;;5053980;28;20039;-28
2022/10/19 02:55:54;;;;;;;5.53;3.13;;;9.00;99.90;;;;;;5054256;28;20037;-30
2022/10/19 02:58:20;;;;;;;5.18;3.22;;;9.00;99.90;;;;;;5054236;28;20037;-28
2022/10/19 03:00:45;;;;;;;6.68;3.45;;;9.00;99.90;;;;;;5054200;28;20044;-26
2022/10/19 03:03:11;;;;;;;7.07;2.70;;;9.10;99.90;;;;;;5054167;28;20505;-27
2022/10/19 03:05:37;;;;;;;3.58;2.65;;;9.10;99.90;;;;;;5058188;28;20044;-26
2022/10/19 03:08:03;;;;;;;3.30;3.00;;;9.10;99.90;;;;;;5060799;28;20375;-28
2022/10/19 03:10:28;;;;;;;4.72;3.10;;;9.20;99.90;;;;;;5060759;28;20409;-28
2022/10/19 03:12:57;;;;;;;6.40;3.15;;;9.20;99.90;;;;;;5060552;28;20040;-28
2022/10/19 03:15:26;;;;;;;6.35;2.97;;;9.20;99.90;;;;;;5060700;28;20375;-27
2022/10/19 03:17:55;;;;;;;7.28;3.10;;;9.20;99.90;;;;;;5060867;28;20032;-27
2022/10/19 03:20:21;;;;;;;5.05;3.58;;;9.30;99.90;;;;;;5060811;28;20079;-28
2022/10/19 03:22:47;;;;;;;8.43;3.45;;;9.30;99.90;;;;;;5060672;28;20509;-27
2022/10/19 03:25:12;;;;;;;4.07;3.47;;;9.30;99.90;;;;;;5060794;28;20459;-28
2022/10/19 03:27:38;;;;;;;6.30;3.58;;;9.30;99.90;;;;;;5044025;28;20098;-28
2022/10/19 03:30:04;;;;;;;7.55;3.50;;;9.30;99.90;;;;;;5060697;28;20457;-27
2022/10/19 03:32:30;;;;;;;5.32;2.80;;;9.40;99.90;;;;;;5060336;28;20040;-27
2022/10/19 03:34:55;;;;;;;6.82;2.90;;;9.40;99.90;;;;;;5060316;28;20037;-27
2022/10/19 03:37:21;;;;;;;6.57;3.53;;;9.40;99.90;;;;;;5060539;28;20462;-27
2022/10/19 03:39:47;;;;;;;6.47;2.80;;;9.40;99.90;;;;;;5043959;28;20052;-27
2022/10/19 03:42:12;;;;;;;6.03;2.85;;;9.40;99.90;;;;;;5060575;28;20072;-29
2022/10/19 03:44:38;;;;;;;4.75;2.97;;;9.50;99.90;;;;;;5060291;28;20452;-30
2022/10/19 03:47:04;;;;;;;4.57;3.17;;;9.50;99.90;;;;;;5060716;28;20032;-27
2022/10/19 03:49:30;;;;;;;6.18;2.78;;;9.50;99.90;;;;;;5043559;28;20040;-26
2022/10/19 03:51:55;;;;;;;4.35;3.05;;;9.50;99.90;;;;;;5060487;28;20045;-27
2022/10/19 03:54:21;;;;;;;5.15;2.95;;;9.50;99.90;;;;;;5060391;28;20190;-28
2022/10/19 03:56:47;;;;;;;8.45;3.20;;;9.50;99.90;;;;;;5043343;28;20060;-26
2022/10/19 03:59:14;;;;;;;6.65;3.20;;;9.50;99.90;;;;;;5060360;28;20036;-26
2022/10/19 04:01:42;;;;;;;8.82;4.00;;;9.50;99.90;;;;;;5060420;28;20036;-27
2022/10/19 04:04:13;;;;;;;5.68;3.30;;;9.50;99.90;;;;;;5060055;28;20036;-27
2022/10/19 04:06:41;;;;;;;5.05;3.22;;;9.50;99.90;;;;;;5060492;28;20524;-26
2022/10/19 04:09:10;;;;;;;4.72;3.30;;;9.40;99.90;;;;;;5060092;28;20103;-27
2022/10/19 04:11:36;;;;;;;5.18;3.85;;;9.40;99.90;;;;;;5060089;28;20036;-27
2022/10/19 04:14:02;;;;;;;5.43;2.83;;;9.40;99.90;;;;;;5059959;28;20044;-26
2022/10/19 04:16:29;;;;;;;5.10;3.17;;;9.40;99.90;;;;;;5058292;28;20040;-32
2022/10/19 04:18:56;;;;;;;6.60;3.10;;;9.40;99.90;;;;;;5069836;28;20083;-31
2022/10/19 04:21:36;;;;;;;4.35;3.00;;;9.40;99.90;;;;;;5056264;28;20503;-31
2022/10/19 04:24:04;;;;;;;7.25;3.28;;;9.30;99.90;;;;;;5052170;28;20033;-31
2022/10/19 04:26:31;;;;;;;4.63;3.58;;;9.30;99.90;;;;;;5049216;28;20040;-31
2022/10/19 04:28:58;;;;;;;6.82;4.22;;;9.30;99.90;;;;;;5055638;28;20383;-30
2022/10/19 04:31:23;;;;;;;3.38;2.90;;;9.30;99.90;;;;;;5053591;28;20033;-30
2022/10/19 04:33:49;;;;;;;4.32;2.90;;;9.30;99.90;;;;;;5055688;28;20028;-30
2022/10/19 04:36:15;;;;;;;5.63;3.00;;;9.30;99.90;;;;;;5055292;28;20031;-31
2022/10/19 04:38:41;;;;;;;6.28;3.35;;;9.30;99.90;;;;;;5054628;28;20091;-32
2022/10/19 04:41:09;;;;;;;6.53;3.35;;;9.30;99.90;;;;;;5055116;28;20406;-32
2022/10/19 04:43:36;;;;;;;5.22;3.45;;;9.20;99.90;;;;;;5042360;28;20037;-31
2022/10/19 04:46:04;;;;;;;3.83;3.20;;;9.30;99.90;;;;;;5055375;28;20059;-32
2022/10/19 04:48:30;;;;;;;8.45;3.60;;;9.30;99.90;;;;;;5053854;28;20047;-32
2022/10/19 04:50:56;;;;;;;5.07;3.17;;;9.30;99.90;;;;;;5047323;28;20036;-31
2022/10/19 04:53:23;;;;;;;11.52;4.22;;;9.30;99.90;;;;;;5050425;28;20438;-31
2022/10/19 04:55:49;;;;;;;6.20;3.50;;;9.30;99.90;;;;;;5048401;28;20032;-31
2022/10/19 04:58:15;;;;;;;3.90;3.22;;;9.30;99.90;;;;;;5054549;28;20029;-31
2022/10/19 05:00:40;;;;;;;5.00;2.72;;;9.30;99.90;;;;;;5054964;28;20064;-32
2022/10/19 05:03:06;;;;;;;7.18;3.05;;;9.30;99.90;;;;;;5054886;28;20497;-31
2022/10/19 05:05:33;;;;;;;4.25;2.97;;;9.30;99.90;;;;;;5059455;28;20082;-32
2022/10/19 05:07:59;;;;;;;6.47;2.83;;;9.30;99.90;;;;;;5055203;28;20123;-31
2022/10/19 05:10:25;;;;;;;7.90;3.42;;;9.30;99.90;;;;;;5054637;28;20028;-33
2022/10/19 05:12:50;;;;;;;6.93;3.45;;;9.30;99.90;;;;;;5053090;28;20393;-33
2022/10/19 05:15:16;;;;;;;7.22;2.80;;;9.30;99.90;;;;;;5052482;28;20044;-31
2022/10/19 05:17:42;;;;;;;5.40;2.90;;;9.30;99.90;;;;;;5053547;28;20040;-32
2022/10/19 05:20:10;;;;;;;4.90;3.03;;;9.30;99.90;;;;;;5052824;28;20041;-31
2022/10/19 05:22:37;;;;;;;4.53;2.95;;;9.30;99.90;;;;;;5044928;28;20244;-31
2022/10/19 05:25:03;;;;;;;3.50;3.03;;;9.40;99.90;;;;;;5077026;28;20421;-32
2022/10/19 05:27:29;;;;;;;4.85;3.03;;;9.40;99.90;;;;;;5052081;28;20054;-30
2022/10/19 05:29:54;;;;;;;5.00;2.95;;;9.40;99.90;;;;;;5054546;28;20119;-35
2022/10/19 05:32:20;;;;;;;5.35;2.95;;;9.40;99.90;;;;;;5054400;28;20036;-32
2022/10/19 05:34:46;;;;;;;7.47;2.88;;;9.40;99.90;;;;;;5067346;28;20036;-30
2022/10/19 05:37:12;;;;;;;5.93;2.80;;;9.30;99.90;;;;;;5043262;28;20041;-33
2022/10/19 05:39:37;;;;;;;6.43;2.97;;;9.30;99.90;;;;;;5054463;28;20490;-31
2022/10/19 05:42:03;;;;;;;3.85;2.20;;;9.30;99.90;;;;;;5054630;28;20041;-30
2022/10/19 05:44:29;;;;;;;6.90;2.80;;;9.30;99.90;;;;;;5054072;28;20036;-30
2022/10/19 05:46:55;;;;;;;8.63;2.58;;;9.20;99.90;;;;;;5054306;28;20097;-31
2022/10/19 05:49:21;;;;;;;6.10;2.50;;;9.20;99.90;;;;;;5054275;28;20119;-31
2022/10/19 05:51:48;;;;;;;2.55;2.00;;;9.20;99.90;;;;;;5054186;28;20036;-30
2022/10/19 05:54:14;;;;;;;3.58;2.42;;;9.10;99.90;;;;;;5053658;28;20040;-30
2022/10/19 05:56:41;;;;;;;7.43;2.70;;;9.10;99.90;;;;;;5054452;28;20140;-31
2022/10/19 05:59:09;;;;;;;9.90;2.92;;;9.00;99.90;;;;;;5080593;28;20056;-28
2022/10/19 06:01:36;;;;;;;4.50;2.20;;;8.90;99.90;;;;;;5054251;28;20033;-26
2022/10/19 06:04:02;;;;;;;4.82;2.13;;;8.90;99.90;;;;;;5060231;28;20041;-26
2022/10/19 06:06:30;;;;;;;6.35;2.60;;;8.90;99.90;;;;;;5055304;28;20037;-26
2022/10/19 06:08:56;;;;;;;5.07;2.78;;;8.80;99.90;;;;;;5054538;28;20032;-26
2022/10/19 06:11:30;;;;;;;4.85;2.20;;;8.80;99.90;;;;;;5037586;28;20051;-26
2022/10/19 06:13:58;;;;;;;8.10;2.72;;;8.80;99.90;;;;;;5041395;28;20498;-26
2022/10/19 06:16:28;;;;;;;10.55;2.40;;;8.80;99.90;;;;;;5037589;28;20127;-26
2022/10/19 06:18:54;;;;;;;5.05;2.10;;;8.70;99.90;;;;;;5072283;28;20037;-26
2022/10/19 06:21:23;;;;;;;5.03;2.58;;;8.70;99.90;;;;;;5053886;28;20036;-26
2022/10/19 06:23:50;;;;;;;13.25;2.60;;;8.70;99.90;;;;;;5072405;28;20524;-27
2022/10/19 06:26:16;;;;;;;5.97;2.40;;;8.70;99.90;;;;;;5053931;28;20047;-26
2022/10/19 06:28:43;;;;;;;9.32;2.38;;;8.60;99.90;;;;;;5074275;28;20040;-25
2022/10/19 06:31:09;;;;;;;6.50;2.50;;;8.70;99.90;;;;;;5054887;28;20123;-28
2022/10/19 06:33:35;;;;;;;7.72;2.38;;;8.70;99.90;;;;;;5054817;28;20115;-26
2022/10/19 06:36:09;;;;;;;11.60;2.50;;;8.70;99.90;;;;;;5055038;28;20043;-27
2022/10/19 06:38:35;;;;;;;7.35;2.80;;;8.70;99.90;;;;;;5055135;28;20067;-26
2022/10/19 06:41:01;;;;;;;5.88;2.20;;;8.80;99.90;;;;;;5054104;28;20044;-26
2022/10/19 06:43:27;;;;;;;7.85;2.50;;;8.80;99.90;;;;;;5037944;28;20036;-26
2022/10/19 06:45:52;;;;;;;7.07;2.30;;;8.90;99.90;;;;;;5054793;28;20033;-26
2022/10/19 06:48:18;;;;;;;5.10;2.05;;;8.90;99.90;;;;;;5054872;28;20032;-25
2022/10/19 06:50:44;;;;;;;5.63;2.75;;;9.00;99.90;;;;;;5036847;28;20044;-31
2022/10/19 06:53:10;;;;;;;3.75;2.60;;;9.00;99.90;;;;;;5051228;28;20465;-31
2022/10/19 06:55:36;;;;;;;4.45;2.40;;;9.10;99.90;;;;;;5053569;28;20037;-31
2022/10/19 06:58:03;;;;;;;6.75;2.28;;;9.10;99.90;;;;;;5053066;28;20513;-29
2022/10/19 07:00:29;;;;;;;6.72;2.30;;;9.20;99.90;;;;;;5053209;28;20111;-31
2022/10/19 07:02:57;;;;;;;8.60;2.75;;;9.20;99.90;;;;;;5076543;28;20040;-27
2022/10/19 07:05:22;;;;;;;8.25;4.13;;;9.20;99.90;;;;;;5053275;28;20485;-26
2022/10/19 07:07:48;;;;;;;6.25;3.70;;;9.30;99.90;;;;;;5053393;28;20044;-27
2022/10/19 07:10:14;;;;;;;9.93;3.55;;;9.40;99.90;;;;;;5053167;28;20049;-26
2022/10/19 07:12:40;;;;;;;8.88;3.83;;;9.40;99.90;;;;;;5067575;28;20044;-26
2022/10/19 07:15:06;;;;;;;6.70;3.90;;;9.60;99.90;;;;;;5049455;28;20075;-26
2022/10/19 07:17:31;;;;;;;6.28;3.08;;;9.60;99.90;;;;;;5053133;28;20486;-26
2022/10/19 07:19:57;;;;;;;9.77;3.03;;;9.70;99.90;;;;;;5053432;28;20048;-26
2022/10/19 07:22:23;;;;;;;14.27;4.13;;;9.80;99.90;;;;;;5052758;28;20033;-27
2022/10/19 07:24:48;;;;;;;8.32;3.50;;;9.90;99.90;;;;;;5053516;28;20116;-26
2022/10/19 07:27:14;;;;;;;6.50;3.55;;;10.00;99.90;;;;;;5019269;28;20097;-27
2022/10/19 07:29:40;;;;;;;5.93;3.70;;;10.00;99.90;;;;;;5045664;28;20048;-28
2022/10/19 07:32:06;;;;;;;8.88;3.70;;;10.10;99.90;;;;;;5052990;28;20089;-26
2022/10/19 07:34:31;;;;;;;8.65;2.58;;;10.20;99.90;;;;;;5036475;28;20028;-27
2022/10/19 07:36:57;;;;;;;10.32;2.33;;;10.30;99.90;;;;;;5047003;28;20510;-27
2022/10/19 07:39:23;;;;;;;11.93;2.80;;;10.30;99.90;;;;;;5052833;28;20041;-26
2022/10/19 07:41:49;;;;;;;8.77;2.55;;;10.40;99.90;;;;;;5052993;28;20336;-26
2022/10/19 07:44:15;;;;;;;6.88;2.22;;;10.50;99.90;;;;;;5052588;28;20024;-27
2022/10/19 07:46:41;;;;;;;7.20;2.67;;;10.60;99.90;;;;;;5053048;28;20028;-27
2022/10/19 07:49:09;;;;;;;9.23;2.65;;;10.60;99.90;;;;;;5052677;28;20032;-30
2022/10/19 07:51:36;;;;;;;7.07;2.47;;;10.70;99.90;;;;;;5048154;28;20506;-30
2022/10/19 07:54:03;;;;;;;9.82;2.47;;;10.80;99.90;;;;;;5056379;28;20481;-30
2022/10/19 07:56:29;;;;;;;7.85;2.28;;;10.90;99.90;;;;;;5056133;28;20029;-31
2022/10/19 07:58:57;;;;;;;8.98;2.65;;;10.90;99.90;;;;;;5056835;28;20063;-32
2022/10/19 08:01:31;;;;;;;10.85;2.45;;;11.00;99.90;;;;;;5056102;28;20444;-29
2022/10/19 08:03:58;;;;;;;11.60;1.98;;;11.10;99.90;;;;;;5082471;28;20032;-30
2022/10/19 08:06:25;;;;;;;8.90;2.45;;;11.30;99.90;;;;;;5074052;28;20035;-30
2022/10/19 08:08:52;;;;;;;11.32;3.22;;;11.40;99.90;;;;;;5074258;28;20036;-27
2022/10/19 08:11:27;;;;;;;6.57;1.75;;;11.90;99.90;;;;;;5084094;28;20040;-27
2022/10/19 08:13:53;;;;;;;8.10;1.90;;;12.50;99.90;;;;;;5053272;28;20102;-28
2022/10/19 08:16:38;;;;;;;7.75;2.40;;;12.70;99.90;;;;;;5053965;28;20036;-27
2022/10/19 08:19:09;;;;;;;10.25;3.05;;;12.80;99.90;;;;;;5056416;28;20115;-27
2022/10/19 08:21:37;;;;;;;6.57;2.60;;;12.90;99.90;;;;;;5056398;28;20469;-27
2022/10/19 08:24:04;;;;;;;6.35;2.25;;;12.90;99.90;;;;;;5039340;28;20136;-27
2022/10/19 08:26:32;;;;;;;12.88;2.45;;;12.90;99.90;;;;;;5056558;28;20485;-28
2022/10/19 08:28:59;;;;;;;9.00;2.22;;;12.90;99.90;;;;;;5056197;28;20040;-27
2022/10/19 08:31:25;;;;;;;9.60;1.75;;;12.80;99.90;;;;;;5056551;28;20399;-27
2022/10/19 08:33:51;;;;;;;9.20;2.38;;;12.90;99.90;;;;;;5055763;28;20136;-28
2022/10/19 08:36:18;;;;;;;13.38;2.63;;;13.00;99.90;;;;;;5050029;28;20036;-27
2022/10/19 08:38:47;;;;;;;6.72;1.88;;;13.40;99.90;;;;;;5083923;28;20083;-27
2022/10/19 08:41:15;;;;;;;6.85;1.52;;;13.70;99.90;;;;;;5053046;28;20084;-28
2022/10/19 08:43:58;;;;;;;8.15;1.70;;;13.80;99.90;;;;;;5047519;28;20036;-27
2022/10/19 08:46:32;;;;;;;8.45;2.15;;;13.90;99.90;;;;;;5061744;28;20474;-29
2022/10/19 08:49:01;;;;;;;9.85;1.90;;;14.00;99.90;;;;;;5055057;28;20481;-27
2022/10/19 08:51:32;;;;;;;9.85;2.20;;;14.00;99.90;;;;;;5051004;28;20103;-27
2022/10/19 08:54:03;;;;;;;8.35;1.60;;;14.20;99.90;;;;;;5055800;28;20036;-27
2022/10/19 08:56:37;;;;;;;9.95;2.03;;;14.30;99.90;;;;;;5055600;28;20029;-28
2022/10/19 08:59:41;;;;;;;6.30;1.65;;;14.40;99.90;;;;;;5055614;28;20044;-27
2022/10/19 09:02:22;;;;;;;8.88;1.63;;;14.50;99.90;;;;;;5061498;28;20533;-27
2022/10/19 09:04:54;;;;;;;10.30;2.22;;;14.60;99.90;;;;;;5055318;28;20048;-28
2022/10/19 09:07:28;;;;;;;8.07;2.00;;;14.50;99.90;;;;;;5048183;28;20124;-27
2022/10/19 09:09:55;;;;;;;7.80;2.10;;;14.40;99.90;;;;;;5055167;28;20071;-27
2022/10/19 09:12:33;;;;;;;6.32;1.98;;;14.30;99.90;;;;;;5055598;28;20391;-28
2022/10/19 09:15:14;;;;;;;6.88;1.58;;;14.10;99.90;;;;;;5055382;28;20366;-27
2022/10/19 09:17:40;;;;;;;7.55;1.83;;;14.10;99.90;;;;;;5069841;28;20131;-26
2022/10/19 09:20:21;;;;;;;5.78;1.38;;;14.00;99.90;;;;;;5038419;28;20123;-28
2022/10/19 09:23:06;;;;;;;11.05;2.17;;;13.90;99.90;;;;;;5084057;28;20094;-27
2022/10/19 09:25:36;;;;;;;8.90;1.60;;;13.80;99.90;;;;;;5072379;28;20033;-28
2022/10/19 09:28:20;;;;;;;8.20;1.35;;;13.80;99.90;;;;;;5073169;28;20032;-29
2022/10/19 09:30:50;;;;;;;5.32;1.45;;;13.90;99.90;;;;;;5053600;28;20040;-27
2022/10/19 09:33:26;;;;;;;6.50;1.60;;;14.00;99.90;;;;;;5054767;28;20040;-27
2022/10/19 09:35:55;;;;;;;4.35;1.10;;;14.00;99.90;;;;;;5080716;28;20039;-27
2022/10/19 09:38:24;;;;;;;7.97;1.60;;;13.90;99.90;;;;;;5054774;28;20040;-27
2022/10/19 09:40:50;;;;;;;10.30;1.67;;;13.80;99.90;;;;;;5080414;28;20036;-27
2022/10/19 09:43:20;;;;;;;5.65;1.42;;;13.80;99.90;;;;;;5043226;28;20094;-27
2022/10/19 09:45:54;;;;;;;6.07;1.60;;;13.70;99.90;;;;;;5055347;28;20394;-27
2022/10/19 09:48:41;;;;;;;5.28;1.60;;;13.70;99.90;;;;;;5055013;28;20551;-27
2022/10/19 09:51:13;;;;;;;4.72;1.67;;;13.80;99.90;;;;;;5072715;28;20041;-28
2022/10/19 09:53:54;;;;;;;4.75;1.48;;;13.80;99.90;;;;;;5051692;28;20040;-27
2022/10/19 09:56:22;;;;;;;6.05;1.52;;;13.80;99.90;;;;;;5038678;28;20125;-27
2022/10/19 09:58:50;;;;;;;11.90;2.05;;;13.80;99.90;;;;;;5054831;28;20024;-28
2022/10/19 10:01:31;;;;;;;4.90;1.60;;;13.90;99.90;;;;;;5054572;28;20100;-28
2022/10/19 10:04:07;;;;;;;4.50;1.90;;;13.90;99.90;;;;;;5049274;28;20095;-29
2022/10/19 10:06:35;;;;;;;4.45;1.40;;;13.90;99.90;;;;;;5048916;28;20041;-27
2022/10/19 10:09:02;;;;;;;5.82;1.90;;;13.90;99.90;;;;;;5054624;28;20082;-28
2022/10/19 10:11:37;;;;;;;8.05;1.80;;;14.00;99.90;;;;;;5054199;28;20040;-27
2022/10/19 10:14:28;;;;;;;4.15;1.85;;;14.10;99.90;;;;;;5052504;28;20036;-28
2022/10/19 10:17:15;;;;;;;5.50;1.92;;;14.10;99.90;;;;;;5054406;28;20093;-28
2022/10/19 10:19:57;;;;;;;5.85;1.48;;;14.10;99.90;;;;;;5061339;28;20123;-27
2022/10/19 10:22:33;;;;;;;5.38;1.83;;;14.20;99.90;;;;;;5053859;28;20035;-27
2022/10/19 10:24:59;;;;;;;3.90;1.63;;;14.40;99.90;;;;;;5052626;28;20367;-27
2022/10/19 10:27:34;;;;;;;5.78;2.08;;;14.50;99.90;;;;;;5054026;28;20540;-27
2022/10/19 10:30:09;;;;;;;8.93;2.30;;;14.60;99.90;;;;;;5053864;28;20050;-27
2022/10/19 10:32:46;;;;;;;5.32;1.83;;;14.60;99.90;;;;;;5052540;28;20090;-27
2022/10/19 10:35:27;;;;;;;6.45;1.30;;;14.60;99.90;;;;;;5053908;28;20032;-27
2022/10/19 10:38:05;;;;;;;7.28;1.70;;;14.90;99.90;;;;;;5032999;28;20044;-28
2022/10/19 10:40:31;;;;;;;5.82;1.77;;;15.40;99.90;;;;;;5053827;28;20046;-29
2022/10/19 10:43:12;;;;;;;5.00;1.50;;;15.70;99.90;;;;;;5053870;28;20124;-28
2022/10/19 10:45:47;;;;;;;4.57;1.67;;;15.80;99.90;;;;;;5055202;28;20110;-29
2022/10/19 10:48:21;;;;;;;5.15;1.40;;;16.50;99.90;;;;;;5072985;28;20533;-28
2022/10/19 10:50:47;;;;;;;5.78;1.30;;;17.00;99.90;;;;;;5053629;28;20045;-28
2022/10/19 10:53:42;;;;;;;4.50;1.60;;;17.00;99.90;;;;;;5053649;28;20086;-29
2022/10/19 10:56:26;;;;;;;4.50;1.60;;;16.90;99.90;;;;;;5032912;28;20071;-28
2022/10/19 10:59:00;;;;;;;6.30;1.60;;;17.10;93.10;;;;;;5054346;28;20041;-27
2022/10/19 11:01:32;;;;;;;6.93;1.50;;;17.50;99.90;;;;;;5038356;28;20044;-28
2022/10/19 11:04:06;;;;;;;6.78;1.35;;;18.20;99.90;;;;;;5054718;28;20053;-28
2022/10/19 11:06:36;;;;;;;5.32;1.23;;;19.00;99.90;;;;;;5055254;28;20037;-28
2022/10/19 11:09:18;;;;;;;4.70;1.45;;;19.50;99.90;;;;;;5054899;28;20087;-29
2022/10/19 11:11:46;;;;;;;5.18;1.27;;;19.60;99.90;;;;;;5054917;28;20033;-28
2022/10/19 11:14:46;;;;;;;5.15;1.42;;;19.50;98.80;;;;;;5054794;28;20058;-28
2022/10/19 11:17:23;;;;;;;3.85;1.55;;;19.50;97.00;;;;;;5054596;28;20128;-28
2022/10/19 11:19:50;;;;;;;4.50;1.67;;;19.10;99.90;;;;;;5055013;28;20040;-28
2022/10/19 11:22:18;;;;;;;6.80;1.48;;;18.50;99.90;;;;;;5054693;28;20032;-28
2022/10/19 11:25:02;;;;;;;8.15;1.52;;;18.10;99.90;;;;;;5054531;28;20047;-28
2022/10/19 11:27:45;;;;;;;4.03;1.67;;;17.60;99.90;;;;;;5058045;28;20438;-28
2022/10/19 11:30:16;;;;;;;6.47;1.70;;;17.30;99.90;;;;;;5059244;28;20437;-27
2022/10/19 11:33:12;;;;;;;4.75;1.70;;;17.00;99.90;;;;;;5058571;28;20087;-29
2022/10/19 11:35:51;;;;;;;3.20;1.33;;;16.80;99.90;;;;;;5041537;28;20144;-27
2022/10/19 11:38:26;;;;;;;4.50;1.27;;;16.60;99.90;;;;;;5059157;28;20456;-28
2022/10/19 11:41:11;;;;;;;3.47;1.25;;;16.60;99.90;;;;;;5042000;28;20044;-28
2022/10/19 11:43:47;;;;;;;6.20;1.35;;;16.50;99.90;;;;;;5076550;28;20509;-26
2022/10/19 11:46:25;;;;;;;6.93;1.67;;;16.30;99.90;;;;;;5058725;28;20036;-27
2022/10/19 11:48:59;;;;;;;6.53;1.90;;;16.30;99.90;;;;;;5058402;28;20055;-28
2022/10/19 11:51:57;;;;;;;4.65;1.55;;;16.30;99.90;;;;;;5058378;28;20044;-28
2022/10/19 11:54:39;;;;;;;4.78;1.98;;;16.10;99.90;;;;;;5058494;28;20500;-28
2022/10/19 11:57:28;;;;;;;7.25;1.58;;;16.10;99.90;;;;;;5058672;28;20626;-28
2022/10/19 12:00:15;;;;;;;4.50;1.55;;;16.00;99.90;;;;;;5058580;28;20033;-28
2022/10/19 12:03:23;;;;;;;5.82;1.85;;;16.10;99.90;;;;;;5058432;28;20122;-28
2022/10/19 12:06:26;;;;;;;5.20;1.63;;;16.10;99.90;;;;;;5057949;28;20101;-28
2022/10/19 12:09:39;;;;;;;4.30;1.63;;;16.10;99.90;;;;;;5058181;28;20363;-27
2022/10/19 12:12:13;;;;;;;7.22;2.08;;;16.40;99.90;;;;;;5062113;28;20498;-26
2022/10/19 12:14:42;;;;;;;4.53;2.08;;;16.80;99.90;;;;;;5041498;28;20398;-28
2022/10/19 12:17:14;;;;;;;3.97;1.67;;;17.10;99.90;;;;;;5057934;28;20044;-27
2022/10/19 12:19:46;;;;;;;6.53;2.33;;;17.10;99.90;;;;;;5058091;28;20102;-28
2022/10/19 12:22:17;;;;;;;7.07;1.98;;;17.30;99.90;;;;;;5058103;28;20097;-28
2022/10/19 12:24:43;;;;;;;5.32;1.98;;;17.70;99.90;;;;;;5058124;28;20440;-31
2022/10/19 12:27:14;;;;;;;3.13;1.70;;;18.10;99.90;;;;;;5058421;28;20048;-28
2022/10/19 12:29:44;;;;;;;5.63;1.83;;;18.90;99.90;;;;;;5040951;28;20135;-28
2022/10/19 12:32:14;;;;;;;4.57;2.03;;;19.50;99.90;;;;;;5041334;28;20121;-28
2022/10/19 12:34:58;;;;;;;5.15;1.75;;;19.90;96.30;;;;;;5057419;28;20452;-29
2022/10/19 12:37:23;;;;;;;5.05;1.60;;;20.20;93.20;;;;;;5056232;28;20041;-27
2022/10/19 12:39:59;;;;;;;5.13;1.42;;;20.50;96.50;;;;;;5057431;28;20033;-28
2022/10/19 12:42:50;;;;;;;4.60;1.52;;;20.50;92.00;;;;;;5075566;28;20083;-28
2022/10/19 12:45:42;;;;;;;4.40;1.88;;;20.80;83.80;;;;;;5057405;28;20040;-28
2022/10/19 12:48:11;;;;;;;3.67;1.88;;;20.80;66.40;;;;;;5057620;28;20083;-28
2022/10/19 12:51:00;;;;;;;9.93;2.20;;;20.20;81.40;;;;;;5057524;28;20375;-27
2022/10/19 12:53:39;;;;;;;4.20;2.15;;;20.10;82.10;;;;;;5056902;28;20119;-29
2022/10/19 12:56:25;;;;;;;6.65;1.98;;;20.00;71.40;;;;;;5057563;28;20093;-28
2022/10/19 12:59:00;;;;;;;5.15;1.80;;;19.70;74.20;;;;;;5057296;28;20165;-28
2022/10/19 13:01:42;;;;;;;5.72;1.85;;;19.50;86.40;;;;;;5057354;28;20516;-28
2022/10/19 13:04:22;;;;;;;5.72;1.98;;;19.80;79.70;;;;;;5057025;28;20033;-29
2022/10/19 13:06:56;;;;;;;6.25;1.73;;;19.90;82.30;;;;;;5057406;28;20502;-27
2022/10/19 13:09:32;;;;;;;6.43;2.05;;;19.90;85.80;;;;;;5057283;28;20064;-28
2022/10/19 13:14:57;;;;;;;5.32;1.77;;;19.70;79.30;;;;;;5074698;28;20045;-28
2022/10/19 13:17:53;;;;;;;;;;;19.10;80.30;;;;;;5057250;28;20068;-28